createdAt,value
2023-10-04T00:01:01.141Z,1.30
2023-10-04T00:03:28.549Z,1.55
2023-10-04T00:05:55.443Z,1.52
2023-10-04T00:08:24.501Z,1.55
2023-10-04T00:10:51.260Z,1.70
2023-10-04T00:13:17.951Z,1.55
2023-10-04T00:15:44.892Z,1.73
2023-10-04T00:18:11.695Z,1.58
2023-10-04T00:20:39.297Z,1.63
2023-10-04T00:23:07.124Z,1.67
2023-10-04T00:25:35.052Z,1.60
2023-10-04T00:28:04.123Z,1.75
2023-10-04T00:30:31.238Z,1.60
2023-10-04T00:32:59.988Z,1.70
2023-10-04T00:35:26.908Z,2.22
2023-10-04T00:37:58.606Z,1.60
2023-10-04T00:40:28.971Z,1.70
2023-10-04T00:42:57.591Z,1.65
2023-10-04T00:45:29.044Z,1.70
2023-10-04T00:47:59.758Z,1.70
2023-10-04T00:50:33.567Z,1.80
2023-10-04T00:53:00.277Z,2.00
2023-10-04T00:55:27.985Z,1.85
2023-10-04T00:57:55.684Z,1.67
2023-10-04T01:00:22.933Z,1.55
2023-10-04T01:02:50.485Z,1.60
2023-10-04T01:05:19.145Z,1.70
2023-10-04T01:07:49.078Z,1.70
2023-10-04T01:10:17.196Z,1.70
2023-10-04T01:12:47.710Z,1.63
2023-10-04T01:15:44.083Z,1.85
2023-10-04T01:18:16.906Z,2.03
2023-10-04T01:20:44.201Z,1.55
2023-10-04T01:23:14.256Z,2.00
2023-10-04T01:25:42.513Z,1.83
2023-10-04T01:28:15.356Z,1.70
2023-10-04T01:30:52.618Z,1.90
2023-10-04T01:33:22.445Z,1.80
2023-10-04T01:35:52.970Z,1.75
2023-10-04T01:38:20.088Z,1.60
2023-10-04T01:40:48.730Z,1.80
2023-10-04T01:43:18.609Z,1.80
2023-10-04T01:45:49.551Z,1.83
2023-10-04T01:48:22.276Z,1.70
2023-10-04T01:50:58.010Z,1.75
2023-10-04T01:53:26.617Z,1.80
2023-10-04T01:55:55.590Z,1.65
2023-10-04T01:58:25.375Z,2.13
2023-10-04T02:00:59.233Z,2.20
2023-10-04T02:03:27.144Z,1.50
2023-10-04T02:06:00.679Z,1.95
2023-10-04T02:08:29.065Z,2.17
2023-10-04T02:10:56.323Z,2.00
2023-10-04T02:13:23.396Z,1.60
2023-10-04T02:15:52.043Z,1.80
2023-10-04T02:18:22.836Z,1.75
2023-10-04T02:20:50.681Z,1.58
2023-10-04T02:23:18.127Z,1.67
2023-10-04T02:25:45.292Z,1.60
2023-10-04T02:28:20.552Z,2.08
2023-10-04T02:30:49.016Z,1.63
2023-10-04T02:33:18.044Z,1.63
2023-10-04T02:35:46.041Z,1.60
2023-10-04T02:38:27.669Z,1.80
2023-10-04T02:40:55.350Z,1.73
2023-10-04T02:43:23.802Z,1.90
2023-10-04T02:45:52.051Z,2.03
2023-10-04T02:48:18.694Z,1.73
2023-10-04T02:50:46.208Z,1.98
2023-10-04T02:53:21.451Z,1.77
2023-10-04T02:55:48.596Z,1.88
2023-10-04T02:58:18.561Z,1.90
2023-10-04T03:00:50.812Z,1.80
2023-10-04T03:03:23.956Z,1.95
2023-10-04T03:05:52.763Z,1.80
2023-10-04T03:08:19.417Z,1.70
2023-10-04T03:10:50.863Z,1.77
2023-10-04T03:13:24.236Z,1.92
2023-10-04T03:15:52.873Z,1.90
2023-10-04T03:18:24.994Z,2.10
2023-10-04T03:21:10.506Z,2.00
2023-10-04T03:23:37.505Z,2.10
2023-10-04T03:26:05.527Z,2.03
2023-10-04T03:28:38.787Z,1.80
2023-10-04T03:31:16.805Z,2.00
2023-10-04T03:33:47.074Z,1.90
2023-10-04T03:36:19.202Z,1.95
2023-10-04T03:38:46.574Z,2.05
2023-10-04T03:41:14.346Z,2.25
2023-10-04T03:43:42.245Z,1.95
2023-10-04T03:46:18.496Z,2.10
2023-10-04T03:48:47.091Z,1.63
2023-10-04T03:51:18.778Z,2.30
2023-10-04T03:53:45.348Z,2.03
2023-10-04T03:56:12.060Z,2.08
2023-10-04T03:58:39.036Z,2.10
2023-10-04T04:01:08.189Z,1.92
2023-10-04T04:03:35.641Z,2.15
2023-10-04T04:06:02.426Z,2.30
2023-10-04T04:08:29.456Z,1.77
2023-10-04T04:10:56.237Z,2.10
2023-10-04T04:13:25.035Z,2.25
2023-10-04T04:15:52.994Z,2.03
2023-10-04T04:18:24.148Z,2.17
2023-10-04T04:20:52.234Z,2.10
2023-10-04T04:23:18.914Z,2.28
2023-10-04T04:25:47.153Z,2.40
2023-10-04T04:30:43.212Z,2.08
2023-10-04T04:33:11.848Z,2.53
2023-10-04T04:35:39.025Z,2.28
2023-10-04T04:38:21.129Z,1.98
2023-10-04T04:40:49.710Z,2.30
2023-10-04T04:45:52.823Z,2.08
2023-10-04T04:48:24.819Z,2.17
2023-10-04T04:50:56.058Z,2.35
2023-10-04T04:53:25.806Z,2.40
2023-10-04T04:55:52.663Z,2.35
2023-10-04T04:58:24.781Z,2.20
2023-10-04T05:00:56.476Z,2.17
2023-10-04T05:03:25.894Z,2.53
2023-10-04T05:05:53.545Z,2.05
2023-10-04T05:08:21.728Z,2.30
2023-10-04T05:10:51.275Z,2.38
2023-10-04T05:13:22.029Z,2.60
2023-10-04T05:15:50.685Z,2.70
2023-10-04T05:18:18.963Z,2.97
2023-10-04T05:20:50.414Z,2.58
2023-10-04T05:23:18.176Z,3.05
2023-10-04T05:25:45.401Z,2.90
2023-10-04T05:28:15.220Z,2.78
2023-10-04T05:30:46.980Z,2.45
2023-10-04T05:33:14.880Z,3.20
2023-10-04T05:35:43.678Z,2.80
2023-10-04T05:38:13.160Z,2.75
2023-10-04T05:40:44.357Z,2.88
2023-10-04T05:43:13.044Z,2.72
2023-10-04T05:45:41.010Z,2.85
2023-10-04T05:48:07.738Z,3.33
2023-10-04T05:50:34.548Z,3.58
2023-10-04T05:53:06.255Z,2.88
2023-10-04T05:55:36.970Z,3.63
2023-10-04T05:58:08.298Z,3.35
2023-10-04T06:00:39.001Z,3.03
2023-10-04T06:03:07.981Z,2.85
2023-10-04T06:05:36.324Z,3.30
2023-10-04T06:08:06.682Z,2.90
2023-10-04T06:10:34.406Z,3.60
2023-10-04T06:13:00.976Z,2.63
2023-10-04T06:15:28.371Z,2.70
2023-10-04T06:17:55.303Z,2.92
2023-10-04T06:20:37.404Z,2.85
2023-10-04T06:23:10.379Z,3.03
2023-10-04T06:25:48.030Z,3.08
2023-10-04T06:28:16.015Z,2.92
2023-10-04T06:30:43.988Z,3.13
2023-10-04T06:33:12.426Z,2.88
2023-10-04T06:35:39.901Z,2.83
2023-10-04T06:38:08.336Z,2.97
2023-10-04T06:40:35.793Z,2.85
2023-10-04T06:43:09.491Z,2.90
2023-10-04T06:45:37.741Z,2.92
2023-10-04T06:50:43.225Z,2.80
2023-10-04T06:53:11.084Z,2.83
2023-10-04T06:55:38.818Z,2.80
2023-10-04T06:58:07.833Z,2.90
2023-10-04T07:00:37.798Z,3.20
2023-10-04T07:03:05.657Z,2.75
2023-10-04T07:05:40.129Z,2.80
2023-10-04T07:08:08.236Z,3.30
2023-10-04T07:10:36.276Z,3.20
2023-10-04T07:13:04.720Z,2.83
2023-10-04T07:15:40.956Z,2.95
2023-10-04T07:18:11.280Z,2.83
2023-10-04T07:20:39.219Z,2.92
2023-10-04T07:23:09.472Z,3.15
2023-10-04T07:25:39.315Z,2.70
2023-10-04T07:28:10.376Z,2.83
2023-10-04T07:30:37.806Z,3.15
2023-10-04T07:33:05.338Z,3.38
2023-10-04T07:35:33.472Z,3.03
2023-10-04T07:38:02.013Z,2.90
2023-10-04T07:40:31.487Z,3.10
2023-10-04T07:43:00.387Z,3.10
2023-10-04T07:45:29.709Z,3.00
2023-10-04T07:47:59.561Z,2.88
2023-10-04T07:50:27.460Z,3.28
2023-10-04T07:52:56.556Z,2.50
2023-10-04T07:55:25.449Z,3.80
2023-10-04T07:58:06.832Z,2.95
2023-10-04T08:00:38.322Z,3.20
2023-10-04T08:03:05.676Z,2.58
2023-10-04T08:05:33.030Z,2.80
2023-10-04T08:08:04.934Z,2.53
2023-10-04T08:10:41.619Z,3.00
2023-10-04T08:13:08.496Z,3.00
2023-10-04T08:15:39.254Z,2.85
2023-10-04T08:18:06.356Z,2.80
2023-10-04T08:20:35.118Z,2.95
2023-10-04T08:23:05.268Z,2.80
2023-10-04T08:25:33.745Z,3.38
2023-10-04T08:28:01.500Z,3.22
2023-10-04T08:30:28.597Z,2.60
2023-10-04T08:32:55.370Z,2.92
2023-10-04T08:35:34.295Z,3.40
2023-10-04T08:38:05.381Z,2.90
2023-10-04T08:40:33.160Z,2.97
2023-10-04T08:43:02.825Z,2.80
2023-10-04T08:45:36.529Z,2.63
2023-10-04T08:48:03.915Z,3.33
2023-10-04T08:50:39.737Z,3.17
2023-10-04T08:53:37.586Z,2.65
2023-10-04T08:56:09.939Z,2.90
2023-10-04T08:58:37.543Z,2.65
2023-10-04T09:01:07.791Z,2.65
2023-10-04T09:03:35.761Z,3.00
2023-10-04T09:06:03.569Z,3.50
2023-10-04T09:08:31.639Z,2.70
2023-10-04T09:10:59.073Z,2.90
2023-10-04T09:13:25.701Z,2.58
2023-10-04T09:15:52.569Z,2.83
2023-10-04T09:18:29.572Z,2.90
2023-10-04T09:20:56.457Z,3.20
2023-10-04T09:23:23.996Z,3.53
2023-10-04T09:25:55.289Z,3.47
2023-10-04T09:28:37.550Z,2.50
2023-10-04T09:31:14.942Z,2.78
2023-10-04T09:33:42.852Z,3.20
2023-10-04T09:38:40.763Z,2.80
2023-10-04T09:41:11.373Z,3.20
2023-10-04T09:43:41.136Z,2.90
2023-10-04T09:46:14.104Z,2.95
2023-10-04T09:48:47.933Z,3.30
2023-10-04T09:51:16.370Z,3.20
2023-10-04T09:53:43.598Z,3.70
2023-10-04T09:56:14.542Z,3.00
2023-10-04T09:58:54.920Z,3.20
2023-10-04T10:01:26.722Z,3.38
2023-10-04T10:03:58.433Z,3.28
2023-10-04T10:06:28.712Z,3.28
2023-10-04T10:09:06.374Z,3.10
2023-10-04T10:11:34.086Z,3.22
2023-10-04T10:14:05.459Z,3.63
2023-10-04T10:16:35.044Z,3.45
2023-10-04T10:19:04.420Z,3.55
2023-10-04T10:22:06.910Z,3.25
2023-10-04T10:24:34.332Z,3.45
2023-10-04T10:27:25.092Z,3.35
2023-10-04T10:29:52.504Z,3.42
2023-10-04T10:32:24.648Z,3.17
2023-10-04T10:34:57.749Z,3.28
2023-10-04T10:37:26.002Z,3.47
2023-10-04T10:39:57.931Z,3.42
2023-10-04T10:42:25.049Z,3.05
2023-10-04T10:45:12.198Z,3.83
2023-10-04T10:47:53.587Z,2.97
2023-10-04T10:50:36.057Z,3.42
2023-10-04T10:53:08.342Z,2.90
2023-10-04T10:55:35.310Z,2.95
2023-10-04T10:58:02.344Z,2.65
2023-10-04T11:00:33.588Z,2.95
2023-10-04T11:03:01.327Z,3.28
2023-10-04T11:05:28.288Z,3.03
2023-10-04T11:07:55.968Z,3.58
2023-10-04T11:10:26.056Z,3.25
2023-10-04T11:13:04.956Z,3.13
2023-10-04T11:15:31.651Z,3.00
2023-10-04T11:17:58.363Z,3.20
2023-10-04T11:20:25.100Z,3.30
2023-10-04T11:22:51.788Z,3.05
2023-10-04T11:25:21.804Z,3.33
2023-10-04T11:27:51.692Z,2.90
2023-10-04T11:30:20.201Z,2.92
2023-10-04T11:32:48.049Z,2.88
2023-10-04T11:35:20.144Z,2.92
2023-10-04T11:37:49.702Z,3.00
2023-10-04T11:40:21.731Z,2.85
2023-10-04T11:43:02.355Z,2.63
2023-10-04T11:45:30.110Z,3.20
2023-10-04T11:48:02.043Z,3.63
2023-10-04T11:50:51.800Z,3.10
2023-10-04T11:53:34.369Z,2.92
2023-10-04T11:56:03.076Z,2.80
2023-10-04T11:58:32.054Z,2.90
2023-10-04T12:01:06.232Z,2.72
2023-10-04T12:03:35.997Z,2.80
2023-10-04T12:06:03.426Z,2.90
2023-10-04T12:08:30.931Z,2.83
2023-10-04T12:10:57.479Z,2.65
2023-10-04T12:13:24.453Z,3.10
2023-10-04T12:15:51.248Z,3.08
2023-10-04T12:18:17.970Z,2.63
2023-10-04T12:20:45.976Z,2.88
2023-10-04T12:23:13.466Z,3.00
2023-10-04T12:25:43.572Z,2.60
2023-10-04T12:28:10.488Z,2.42
2023-10-04T12:30:37.856Z,3.38
2023-10-04T12:33:06.757Z,2.65
2023-10-04T12:35:33.473Z,3.05
2023-10-04T12:38:00.253Z,2.65
2023-10-04T12:40:26.948Z,2.72
2023-10-04T12:42:54.413Z,2.65
2023-10-04T12:45:22.017Z,2.50
2023-10-04T12:47:49.224Z,2.70
2023-10-04T12:50:16.257Z,2.90
2023-10-04T12:52:44.325Z,2.90
2023-10-04T12:57:40.286Z,2.10
2023-10-04T13:00:20.167Z,2.50
2023-10-04T13:02:47.971Z,2.25
2023-10-04T13:05:19.877Z,2.15
2023-10-04T13:07:48.004Z,2.22
2023-10-04T13:10:16.923Z,2.30
2023-10-04T13:12:43.827Z,2.28
2023-10-04T13:15:11.810Z,2.20
2023-10-04T13:17:40.347Z,2.00
2023-10-04T13:20:10.690Z,2.00
2023-10-04T13:22:37.600Z,2.05
2023-10-04T13:25:08.059Z,2.15
2023-10-04T13:27:37.281Z,1.90
2023-10-04T13:30:05.703Z,1.80
2023-10-04T13:32:33.208Z,1.80
2023-10-04T13:35:01.507Z,2.30
2023-10-04T13:37:28.196Z,2.10
2023-10-04T13:39:57.570Z,2.20
2023-10-04T13:42:29.338Z,2.20
2023-10-04T13:44:58.495Z,2.00
2023-10-04T13:47:25.506Z,1.88
2023-10-04T13:49:52.243Z,1.67
2023-10-04T13:52:19.016Z,1.65
2023-10-04T13:54:54.782Z,1.70
2023-10-04T13:57:23.776Z,1.55
2023-10-04T13:59:50.846Z,1.40
2023-10-04T14:02:20.119Z,1.70
2023-10-04T14:04:47.452Z,1.38
2023-10-04T14:07:15.185Z,1.58
2023-10-04T14:09:41.828Z,1.50
2023-10-04T14:12:08.574Z,1.42
2023-10-04T14:14:35.224Z,1.10
2023-10-04T14:17:06.229Z,1.60
2023-10-04T14:19:33.217Z,1.27
2023-10-04T14:22:02.080Z,1.20
2023-10-04T14:24:32.006Z,1.40
2023-10-04T14:27:02.344Z,1.10
2023-10-04T14:29:31.326Z,0.98
2023-10-04T14:31:59.004Z,1.00
2023-10-04T14:34:25.734Z,1.00
2023-10-04T14:36:52.405Z,1.15
2023-10-04T14:39:22.740Z,1.00
2023-10-04T14:41:49.858Z,1.08
2023-10-04T14:44:16.461Z,1.15
2023-10-04T14:46:43.221Z,1.38
2023-10-04T14:49:09.778Z,1.10
2023-10-04T14:51:36.887Z,1.30
2023-10-04T14:54:04.998Z,1.00
2023-10-04T14:56:31.784Z,1.13
2023-10-04T14:58:58.413Z,1.15
2023-10-04T15:01:25.226Z,1.13
2023-10-04T15:03:54.733Z,1.38
2023-10-04T15:06:24.172Z,1.20
2023-10-04T15:08:51.017Z,1.60
2023-10-04T15:11:30.673Z,1.20
2023-10-04T15:13:59.319Z,1.10
2023-10-04T15:16:26.441Z,1.20
2023-10-04T15:18:53.150Z,1.23
2023-10-04T15:21:20.491Z,1.13
2023-10-04T15:23:47.072Z,1.20
2023-10-04T15:26:13.742Z,1.17
2023-10-04T15:28:44.957Z,1.30
2023-10-04T15:31:14.324Z,1.25
2023-10-04T15:33:41.308Z,1.13
2023-10-04T15:36:07.914Z,1.30
2023-10-04T15:38:34.501Z,1.00
2023-10-04T15:41:01.202Z,1.20
2023-10-04T15:43:28.501Z,1.08
2023-10-04T15:45:55.175Z,1.23
2023-10-04T15:48:21.802Z,1.88
2023-10-04T15:50:48.416Z,1.10
2023-10-04T15:53:15.089Z,1.45
2023-10-04T15:55:42.628Z,1.35
2023-10-04T15:58:10.658Z,1.10
2023-10-04T16:03:16.017Z,1.75
2023-10-04T16:05:42.857Z,1.20
2023-10-04T16:08:09.990Z,1.10
2023-10-04T16:10:36.715Z,1.00
2023-10-04T16:13:05.610Z,1.15
2023-10-04T16:15:33.938Z,0.95
2023-10-04T16:18:01.149Z,0.95
2023-10-04T16:20:27.985Z,0.98
2023-10-04T16:22:59.064Z,1.17
2023-10-04T16:25:27.431Z,1.42
2023-10-04T16:27:55.298Z,0.93
2023-10-04T16:30:22.405Z,1.10
2023-10-04T16:32:49.889Z,1.00
2023-10-04T16:35:18.161Z,1.02
2023-10-04T16:37:45.690Z,0.80
2023-10-04T16:40:14.484Z,0.90
2023-10-04T16:42:45.115Z,0.90
2023-10-04T16:45:15.981Z,1.42
2023-10-04T16:47:46.980Z,0.98
2023-10-04T16:50:15.004Z,0.90
2023-10-04T16:52:41.628Z,0.93
2023-10-04T16:55:10.299Z,1.40
2023-10-04T16:57:37.201Z,1.08
2023-10-04T17:00:06.450Z,1.02
2023-10-04T17:02:33.263Z,1.20
2023-10-04T17:05:00.039Z,0.80
2023-10-04T17:07:26.638Z,0.80
2023-10-04T17:09:54.849Z,0.90
2023-10-04T17:12:23.672Z,0.82
2023-10-04T17:14:50.213Z,1.52
2023-10-04T17:17:16.739Z,0.90
2023-10-04T17:19:44.368Z,0.88
2023-10-04T17:22:13.159Z,1.00
2023-10-04T17:24:40.990Z,0.90
2023-10-04T17:27:07.689Z,0.90
2023-10-04T17:29:34.264Z,0.90
2023-10-04T17:32:02.310Z,0.80
2023-10-04T17:34:29.171Z,0.98
2023-10-04T17:36:58.845Z,1.00
2023-10-04T17:39:28.730Z,0.77
2023-10-04T17:41:55.557Z,1.10
2023-10-04T17:44:22.628Z,1.08
2023-10-04T17:46:49.215Z,1.17
2023-10-04T17:49:15.835Z,1.10
2023-10-04T17:51:42.911Z,1.10
2023-10-04T17:54:09.540Z,1.42
2023-10-04T17:56:38.415Z,1.02
2023-10-04T17:59:05.005Z,1.25
2023-10-04T18:01:32.075Z,1.20
2023-10-04T18:03:58.868Z,1.20
2023-10-04T18:06:27.818Z,1.20
2023-10-04T18:08:55.126Z,1.10
2023-10-04T18:11:25.506Z,1.08
2023-10-04T18:13:52.087Z,1.20
2023-10-04T18:16:18.570Z,1.10
2023-10-04T18:18:45.235Z,1.27
2023-10-04T18:21:11.865Z,1.30
2023-10-04T18:23:38.678Z,1.20
2023-10-04T18:26:09.931Z,1.00
2023-10-04T18:28:36.739Z,1.48
2023-10-04T18:31:03.661Z,1.17
2023-10-04T18:33:31.129Z,1.15
2023-10-04T18:35:57.831Z,1.10
2023-10-04T18:38:24.994Z,1.50
2023-10-04T18:40:51.896Z,1.23
2023-10-04T18:43:19.456Z,1.40
2023-10-04T18:45:46.176Z,1.50
2023-10-04T18:48:13.715Z,1.50
2023-10-04T18:50:40.349Z,1.40
2023-10-04T18:53:07.804Z,1.80
2023-10-04T18:55:41.803Z,2.22
2023-10-04T18:58:11.476Z,1.40
2023-10-04T19:00:38.213Z,1.25
2023-10-04T19:03:05.108Z,1.30
2023-10-04T19:05:31.724Z,1.50
2023-10-04T19:07:59.099Z,1.20
2023-10-04T19:10:25.735Z,1.42
2023-10-04T19:12:54.846Z,1.25
2023-10-04T19:15:29.324Z,1.33
2023-10-04T19:17:56.192Z,1.30
2023-10-04T19:20:24.384Z,1.63
2023-10-04T19:22:51.028Z,1.25
2023-10-04T19:25:18.644Z,1.40
2023-10-04T19:27:52.964Z,1.42
2023-10-04T19:30:22.628Z,1.55
2023-10-04T19:32:49.838Z,1.30
2023-10-04T19:35:19.509Z,1.50
2023-10-04T19:37:46.345Z,1.40
2023-10-04T19:40:15.989Z,1.08
2023-10-04T19:42:42.930Z,1.02
2023-10-04T19:45:11.458Z,1.15
2023-10-04T19:47:39.056Z,1.30
2023-10-04T19:50:06.592Z,1.50
2023-10-04T19:52:34.260Z,1.85
2023-10-04T19:55:01.456Z,1.80
2023-10-04T19:57:29.186Z,1.67
2023-10-04T19:59:55.845Z,1.48
2023-10-04T20:02:22.459Z,1.60
2023-10-04T20:04:49.010Z,1.50
2023-10-04T20:07:15.554Z,1.40
2023-10-04T20:09:42.384Z,1.25
2023-10-04T20:12:10.590Z,1.42
2023-10-04T20:17:04.384Z,1.35
2023-10-04T20:19:33.830Z,1.55
2023-10-04T20:22:00.370Z,1.80
2023-10-04T20:24:26.920Z,1.58
2023-10-04T20:26:53.443Z,1.50
2023-10-04T20:29:20.531Z,1.42
2023-10-04T20:31:47.226Z,1.58
2023-10-04T20:34:13.919Z,1.52
2023-10-04T20:36:41.437Z,1.45
2023-10-04T20:39:11.232Z,1.40
2023-10-04T20:41:39.010Z,1.58
2023-10-04T20:44:06.415Z,1.40
2023-10-04T20:46:33.271Z,1.30
2023-10-04T20:49:00.261Z,1.25
2023-10-04T20:51:30.585Z,1.40
2023-10-04T20:53:58.143Z,1.30
2023-10-04T20:56:29.413Z,1.45
2023-10-04T20:58:56.386Z,1.75
2023-10-04T21:01:23.961Z,1.30
2023-10-04T21:03:50.958Z,1.40
2023-10-04T21:06:17.683Z,1.60
2023-10-04T21:08:44.328Z,1.70
2023-10-04T21:11:12.489Z,1.60
2023-10-04T21:13:41.757Z,1.80
2023-10-04T21:16:09.466Z,1.70
2023-10-04T21:18:36.447Z,1.50
2023-10-04T21:21:03.381Z,1.70
2023-10-04T21:23:30.482Z,1.80
2023-10-04T21:25:57.109Z,1.70
2023-10-04T21:28:24.489Z,1.58
2023-10-04T21:30:54.342Z,1.48
2023-10-04T21:33:26.469Z,1.60
2023-10-04T21:36:06.384Z,1.60
2023-10-04T21:38:34.039Z,1.60
2023-10-04T21:41:06.620Z,1.55
2023-10-04T21:43:36.481Z,1.70
2023-10-04T21:46:11.054Z,1.42
2023-10-04T21:48:45.631Z,1.73
2023-10-04T21:51:26.123Z,1.70
2023-10-04T21:53:53.411Z,1.60
2023-10-04T21:56:20.088Z,1.48
2023-10-04T21:58:46.631Z,1.42
2023-10-04T22:01:18.370Z,1.90
2023-10-04T22:03:48.493Z,1.50
2023-10-04T22:06:18.337Z,1.40
2023-10-04T22:08:44.977Z,1.38
2023-10-04T22:11:14.132Z,1.70
2023-10-04T22:13:40.812Z,1.63
2023-10-04T22:16:07.673Z,1.35
2023-10-04T22:18:34.432Z,1.60
2023-10-04T22:21:04.577Z,1.27
2023-10-04T22:23:31.143Z,1.48
2023-10-04T22:25:58.291Z,1.30
2023-10-04T22:28:24.903Z,1.13
2023-10-04T22:30:51.626Z,1.45
2023-10-04T22:33:20.241Z,1.58
2023-10-04T22:35:46.849Z,1.40
2023-10-04T22:38:13.950Z,1.40
2023-10-04T22:40:40.509Z,1.55
2023-10-04T22:43:08.814Z,1.83
2023-10-04T22:45:36.491Z,1.35
2023-10-04T22:48:04.689Z,1.50
2023-10-04T22:52:58.113Z,1.40
2023-10-04T22:55:25.027Z,1.30
2023-10-04T22:57:51.800Z,1.33
2023-10-04T23:00:29.488Z,1.35
2023-10-04T23:02:59.668Z,1.60
2023-10-04T23:05:27.185Z,1.50
2023-10-04T23:07:58.207Z,1.85
2023-10-04T23:10:25.149Z,1.60
2023-10-04T23:12:56.494Z,1.63
2023-10-04T23:15:40.752Z,1.83
2023-10-04T23:18:26.918Z,1.40
2023-10-04T23:21:07.823Z,1.70
2023-10-04T23:23:38.873Z,1.58
2023-10-04T23:26:05.666Z,1.45
2023-10-04T23:28:32.860Z,1.33
2023-10-04T23:30:59.904Z,1.67
2023-10-04T23:33:27.941Z,1.48
2023-10-04T23:35:58.966Z,1.33
2023-10-04T23:38:33.525Z,1.40
2023-10-04T23:43:42.218Z,1.77
2023-10-04T23:46:10.628Z,1.50
2023-10-04T23:48:42.532Z,1.50
2023-10-04T23:51:12.066Z,1.55
2023-10-04T23:53:59.097Z,1.80
2023-10-04T23:56:31.962Z,1.35
2023-10-04T23:58:59.118Z,1.65
